sim
Sign-in with your pilot id or email,
or register
Callsign
Passwort

Schedule Details

Flight Number: OEC87674
Departure: Munich Airport (EDDM) at 02:15 UTC
Arrival: Los Angeles International Airport (KLAX) at 13:05 UTC
Route: MIQ8E MIQ Y102 ALIBU UL604 MAPOX DCT SPY UL602 SUPUR DCT ROKAN DCT NEXUS UP59 BALIX/M083F320 DCT 62N020W 64N030W 65N040W 65N050W DCT CLAVY N896A KAGLY/N0478F320 N896A TEFFO DCT MIBNA DCT VILRA DCT KAIIN SCAG YBR J562 DIK DCT OCS J107 MLF DCT LAS DCT HEC BASET4

Weather Information
Getting current METAR information for EDDM 291620Z 27008KT 9999 BKN020 12/09 Q1019 NOSIG
Getting current METAR information for KLAX 291553Z 00000KT 3SM BR FEW000 SCT003 20/17 A2999 RMK AO2 SLP153 FG FEW000 T02000172

Schedule Frequency

Route Map